Time;durP1;ratioP1;P1;durP2;ratioP2;P2;SDS_P1;SDS_P2;PMS_P1;PMS_P2;Temp;Humidity;BMP_temperature;BMP_pressure;BME280_temperature;BME280_humidity;BME280_pressure;Samples;Min_cycle;Max_cycle;Signal;HPM_P1;HPM_P2
2021/04/13 00:02:18;;;;;;;5.00;1.20;;;3.40;87.00;;;;;;5109594;28;20297;-65
2021/04/13 00:04:47;;;;;;;5.03;1.27;;;3.40;87.00;;;;;;5110501;28;20784;-66
2021/04/13 00:07:13;;;;;;;7.20;1.67;;;3.50;87.10;;;;;;5110329;28;20370;-65
2021/04/13 00:09:40;;;;;;;3.40;0.93;;;3.50;86.90;;;;;;5110091;28;20301;-65
2021/04/13 00:12:09;;;;;;;7.37;2.07;;;3.50;87.10;;;;;;5109926;28;20313;-65
2021/04/13 00:14:50;;;;;;;7.57;1.90;;;3.50;86.90;;;;;;5110511;28;20301;-65
2021/04/13 00:17:21;;;;;;;5.40;1.37;;;3.60;87.00;;;;;;5109516;27;20863;-65
2021/04/13 00:19:54;;;;;;;5.67;1.50;;;3.60;87.00;;;;;;5110536;28;20381;-67
2021/04/13 00:22:19;;;;;;;7.53;1.50;;;3.60;86.90;;;;;;5110078;28;20307;-66
2021/04/13 00:24:46;;;;;;;5.83;1.17;;;3.60;86.90;;;;;;5109025;28;20293;-66
2021/04/13 00:27:16;;;;;;;8.17;1.50;;;3.60;86.90;;;;;;5109863;28;20051;-66
2021/04/13 00:29:43;;;;;;;8.37;1.40;;;3.70;87.10;;;;;;5110084;28;20819;-65
2021/04/13 00:32:10;;;;;;;6.00;1.07;;;3.70;86.90;;;;;;5109347;28;20318;-65
2021/04/13 00:37:24;;;;;;;4.05;1.20;;;3.70;86.90;;;;;;5109158;28;20296;-65
2021/04/13 00:40:21;;;;;;;9.53;1.60;;;3.60;87.20;;;;;;5109965;28;20163;-66
2021/04/13 00:42:49;;;;;;;8.70;2.07;;;3.60;87.40;;;;;;5108334;28;20296;-66
2021/04/13 00:45:20;;;;;;;5.03;1.20;;;3.60;87.40;;;;;;5108803;28;20305;-66
2021/04/13 00:47:47;;;;;;;6.22;1.38;;;3.60;87.20;;;;;;5109668;28;20301;-65
2021/04/13 00:50:34;;;;;;;2.87;0.80;;;3.60;87.20;;;;;;5109219;28;20532;-65
2021/04/13 00:53:03;;;;;;;9.17;1.80;;;3.60;87.30;;;;;;5108954;28;20309;-65
2021/04/13 00:55:47;;;;;;;7.30;1.30;;;3.60;87.40;;;;;;5109406;28;20297;-65
2021/04/13 00:58:37;;;;;;;10.13;1.93;;;3.60;87.50;;;;;;5108497;28;20304;-66
2021/04/13 01:01:12;;;;;;;11.27;2.13;;;3.60;87.70;;;;;;5109104;28;20308;-65
2021/04/13 01:03:50;;;;;;;4.67;1.10;;;3.60;87.80;;;;;;5109451;28;20697;-65
2021/04/13 01:06:25;;;;;;;7.60;1.30;;;3.70;88.10;;;;;;5108996;28;20412;-65
2021/04/13 01:09:09;;;;;;;8.17;2.03;;;3.70;88.10;;;;;;5109536;28;20301;-65
2021/04/13 01:11:54;;;;;;;6.03;1.03;;;3.70;88.00;;;;;;5109706;28;20375;-66
2021/04/13 01:14:20;;;;;;;4.80;1.37;;;3.70;88.10;;;;;;5108389;28;20316;-66
2021/04/13 01:16:54;;;;;;;6.23;1.00;;;3.60;88.00;;;;;;5109195;28;20789;-65
2021/04/13 01:19:40;;;;;;;8.93;1.93;;;3.60;88.20;;;;;;5108286;28;20813;-65
2021/04/13 01:22:24;;;;;;;5.67;1.77;;;3.50;88.20;;;;;;5108160;28;20309;-66
2021/04/13 01:24:52;;;;;;;4.50;1.30;;;3.50;88.40;;;;;;5108671;28;20294;-66
2021/04/13 01:27:21;;;;;;;3.43;1.10;;;3.50;88.30;;;;;;5108101;28;20293;-65
2021/04/13 01:29:49;;;;;;;2.67;1.17;;;3.50;88.20;;;;;;5109145;28;20853;-65
2021/04/13 01:32:17;;;;;;;5.90;1.20;;;3.50;88.20;;;;;;5108503;28;20317;-66
2021/04/13 01:34:45;;;;;;;5.67;1.20;;;3.50;88.40;;;;;;5107989;28;20704;-65
2021/04/13 01:37:31;;;;;;;3.83;1.00;;;3.40;88.20;;;;;;5108409;28;20313;-66
2021/04/13 01:40:05;;;;;;;7.77;1.40;;;3.40;88.20;;;;;;5108737;28;20354;-66
2021/04/13 01:42:33;;;;;;;9.13;1.70;;;3.30;88.20;;;;;;5108168;28;20362;-65
2021/04/13 01:45:05;;;;;;;12.50;1.63;;;3.30;88.20;;;;;;5108618;28;20298;-66
2021/04/13 01:47:31;;;;;;;4.17;0.80;;;3.30;88.20;;;;;;5108589;28;20735;-66
2021/04/13 01:50:07;;;;;;;4.97;1.43;;;3.30;88.30;;;;;;5108606;28;20421;-66
2021/04/13 01:52:36;;;;;;;4.93;1.23;;;3.40;88.20;;;;;;5108715;28;20319;-66
2021/04/13 01:55:24;;;;;;;6.10;1.17;;;3.30;88.20;;;;;;5107416;28;20297;-66
2021/04/13 01:58:15;;;;;;;5.73;1.30;;;3.30;88.40;;;;;;5108316;28;20330;-65
2021/04/13 02:00:53;;;;;;;6.97;1.20;;;3.30;88.40;;;;;;5108165;28;20335;-65
2021/04/13 02:03:42;;;;;;;5.70;1.20;;;3.20;88.50;;;;;;5108140;28;20067;-65
2021/04/13 02:06:16;;;;;;;4.87;1.40;;;3.20;88.50;;;;;;5108129;28;20844;-65
2021/04/13 02:08:50;;;;;;;10.20;1.47;;;3.20;88.50;;;;;;5107503;28;20297;-65
2021/04/13 02:11:27;;;;;;;10.30;1.40;;;3.20;88.60;;;;;;5107859;28;20353;-65
2021/04/13 02:14:02;;;;;;;5.53;1.37;;;3.20;88.70;;;;;;5108636;28;20305;-65
2021/04/13 02:16:36;;;;;;;7.13;1.40;;;3.20;89.60;;;;;;5108120;28;20595;-66
2021/04/13 02:19:07;;;;;;;6.13;1.43;;;3.20;88.80;;;;;;5107518;28;20824;-66
2021/04/13 02:21:51;;;;;;;11.82;1.67;;;3.20;88.90;;;;;;5108825;28;20301;-66
2021/04/13 02:24:21;;;;;;;8.00;1.50;;;3.20;89.00;;;;;;5107632;28;20070;-66
2021/04/13 02:26:50;;;;;;;14.17;2.07;;;3.20;89.10;;;;;;5108519;28;21020;-66
2021/04/13 02:29:19;;;;;;;6.73;1.57;;;3.20;89.00;;;;;;5106595;28;20298;-65
2021/04/13 02:31:52;;;;;;;11.93;1.80;;;3.20;88.80;;;;;;5107098;28;20832;-65
2021/04/13 02:34:19;;;;;;;7.93;1.23;;;3.20;88.80;;;;;;5111664;28;20305;-66
2021/04/13 02:36:48;;;;;;;7.13;1.40;;;3.20;88.90;;;;;;5111768;28;20395;-66
2021/04/13 02:39:17;;;;;;;7.77;1.50;;;3.20;89.00;;;;;;5112048;28;20301;-66
2021/04/13 02:41:54;;;;;;;7.03;1.50;;;3.30;89.10;;;;;;5111765;28;20329;-66
2021/04/13 02:44:23;;;;;;;6.83;1.47;;;3.30;89.00;;;;;;5111441;28;20303;-66
2021/04/13 02:46:51;;;;;;;6.97;1.63;;;3.30;88.90;;;;;;5112466;28;20780;-65
2021/04/13 02:49:19;;;;;;;10.13;1.40;;;3.30;88.90;;;;;;5111869;28;20306;-66
2021/04/13 02:51:50;;;;;;;5.93;1.33;;;3.30;88.90;;;;;;5110932;28;20317;-65
2021/04/13 02:54:23;;;;;;;7.65;1.60;;;3.30;88.80;;;;;;5111650;28;20325;-66
2021/04/13 02:56:53;;;;;;;6.10;1.13;;;3.30;88.70;;;;;;5112219;28;20864;-65
2021/04/13 02:59:18;;;;;;;10.20;1.97;;;3.30;88.70;;;;;;5111661;28;20301;-65
2021/04/13 03:02:14;;;;;;;12.90;1.77;;;3.30;88.70;;;;;;5111902;28;20809;-66
2021/04/13 03:04:49;;;;;;;9.40;1.60;;;3.30;88.70;;;;;;5111433;28;20180;-65
2021/04/13 03:07:22;;;;;;;6.37;1.50;;;3.30;88.60;;;;;;5111780;28;20364;-66
2021/04/13 03:09:50;;;;;;;6.13;2.03;;;3.30;88.70;;;;;;5111530;28;20297;-66
2021/04/13 03:12:17;;;;;;;6.63;1.40;;;3.30;88.60;;;;;;5110449;28;20684;-65
2021/04/13 03:14:48;;;;;;;4.60;1.30;;;3.20;89.40;;;;;;5111348;28;20293;-65
2021/04/13 03:17:21;;;;;;;7.93;1.50;;;3.20;88.80;;;;;;5111812;28;20312;-65
2021/04/13 03:19:49;;;;;;;6.17;1.63;;;3.20;89.00;;;;;;5110434;28;20293;-65
2021/04/13 03:22:17;;;;;;;6.50;1.80;;;3.20;89.10;;;;;;5111150;28;20316;-66
2021/04/13 03:24:45;;;;;;;5.83;1.73;;;3.10;89.20;;;;;;5111251;27;20408;-65
2021/04/13 03:27:18;;;;;;;10.10;1.77;;;3.10;89.30;;;;;;5110823;28;20792;-66
2021/04/13 03:30:09;;;;;;;9.63;1.87;;;3.10;89.20;;;;;;5111089;28;20297;-65
2021/04/13 03:32:40;;;;;;;9.20;1.63;;;3.10;89.20;;;;;;5111352;28;20402;-65
2021/04/13 03:35:07;;;;;;;6.68;1.52;;;3.20;89.20;;;;;;5110737;28;20777;-66
2021/04/13 03:37:35;;;;;;;10.07;1.70;;;3.10;89.10;;;;;;5111770;28;20499;-65
2021/04/13 03:40:07;;;;;;;11.07;1.53;;;3.10;89.30;;;;;;5110056;28;20312;-66
2021/04/13 03:42:35;;;;;;;9.85;1.73;;;3.10;89.40;;;;;;5111257;28;20290;-65
2021/04/13 03:45:02;;;;;;;6.83;1.40;;;3.10;89.30;;;;;;5109947;28;20071;-65
2021/04/13 03:47:34;;;;;;;8.30;1.60;;;3.10;89.30;;;;;;5110843;28;20649;-65
2021/04/13 03:50:05;;;;;;;6.63;1.53;;;3.10;89.30;;;;;;5110350;27;20301;-65
2021/04/13 03:52:33;;;;;;;8.23;1.77;;;3.00;89.50;;;;;;5110836;28;20096;-67
2021/04/13 03:55:22;;;;;;;10.47;1.90;;;3.00;89.50;;;;;;5109620;28;20881;-66
2021/04/13 03:57:49;;;;;;;10.00;2.37;;;3.00;89.80;;;;;;5111308;28;20861;-66
2021/04/13 04:00:22;;;;;;;9.97;1.90;;;3.00;90.00;;;;;;5110378;27;20300;-66
2021/04/13 04:02:49;;;;;;;9.30;1.80;;;3.00;89.90;;;;;;5109805;28;20304;-65
2021/04/13 04:05:18;;;;;;;9.73;1.63;;;3.00;89.90;;;;;;5110244;28;20305;-65
2021/04/13 04:10:44;;;;;;;7.30;1.87;;;3.10;89.70;;;;;;5110107;28;20305;-65
2021/04/13 04:13:25;;;;;;;6.10;1.57;;;3.10;89.60;;;;;;5110676;28;20304;-65
2021/04/13 04:16:03;;;;;;;7.82;1.40;;;3.10;89.50;;;;;;5109852;28;20332;-65
2021/04/13 04:18:39;;;;;;;10.27;1.90;;;3.10;89.60;;;;;;5110496;28;20051;-65
2021/04/13 04:21:35;;;;;;;8.80;1.67;;;3.10;89.50;;;;;;5110282;28;20358;-65
2021/04/13 04:24:05;;;;;;;7.07;1.47;;;3.10;89.40;;;;;;5104717;28;20301;-66
2021/04/13 04:26:45;;;;;;;7.17;1.50;;;3.10;90.10;;;;;;5110343;28;20301;-66
2021/04/13 04:29:19;;;;;;;10.53;1.90;;;3.10;89.30;;;;;;5109232;28;20400;-66
2021/04/13 04:31:47;;;;;;;18.90;1.97;;;3.10;89.50;;;;;;5109942;28;20371;-66
2021/04/13 04:34:15;;;;;;;10.23;1.60;;;3.10;89.40;;;;;;5110245;28;20293;-67
2021/04/13 04:36:45;;;;;;;12.13;2.20;;;3.20;89.30;;;;;;5109092;28;20333;-66
2021/04/13 04:39:26;;;;;;;6.77;1.60;;;3.20;89.30;;;;;;5109868;28;20321;-66
2021/04/13 04:41:57;;;;;;;6.10;1.83;;;3.30;89.30;;;;;;5109767;28;20300;-66
2021/04/13 04:44:25;;;;;;;5.65;1.42;;;3.30;89.20;;;;;;5109838;28;20300;-67
2021/04/13 04:46:58;;;;;;;7.80;1.97;;;3.30;89.10;;;;;;5109556;28;20126;-66
2021/04/13 04:49:24;;;;;;;10.03;1.77;;;3.40;89.10;;;;;;5110382;28;20300;-66
2021/04/13 04:51:52;;;;;;;11.70;1.50;;;3.40;89.10;;;;;;5109195;28;20396;-66
2021/04/13 04:54:17;;;;;;;9.33;1.53;;;3.50;89.00;;;;;;5109764;28;20669;-66
2021/04/13 04:56:43;;;;;;;10.27;1.70;;;3.60;88.80;;;;;;5108200;28;20293;-66
2021/04/13 04:59:09;;;;;;;10.97;1.60;;;3.60;88.60;;;;;;5108568;28;20039;-66
2021/04/13 05:01:34;;;;;;;10.00;1.53;;;3.70;88.60;;;;;;5109822;28;20504;-67
2021/04/13 05:04:00;;;;;;;9.60;2.13;;;3.70;88.40;;;;;;5109109;28;20407;-66
2021/04/13 05:06:26;;;;;;;8.67;2.10;;;3.70;88.30;;;;;;5108898;28;20090;-66
2021/04/13 05:08:54;;;;;;;10.30;2.17;;;3.80;88.30;;;;;;5109265;28;20652;-67
2021/04/13 05:11:20;;;;;;;12.47;2.00;;;3.80;88.30;;;;;;5109055;28;20885;-66
2021/04/13 05:13:46;;;;;;;9.10;1.73;;;3.80;88.20;;;;;;5109086;28;20348;-66
2021/04/13 05:16:12;;;;;;;11.40;2.03;;;3.80;88.20;;;;;;5108973;28;20685;-66
2021/04/13 05:18:38;;;;;;;9.63;1.70;;;3.80;88.10;;;;;;5108694;28;20922;-66
2021/04/13 05:21:04;;;;;;;13.87;2.00;;;3.80;88.10;;;;;;5109062;28;20305;-66
2021/04/13 05:23:29;;;;;;;10.73;1.80;;;3.80;88.10;;;;;;5109523;28;20195;-67
2021/04/13 05:25:55;;;;;;;9.17;1.63;;;3.80;88.10;;;;;;5108301;28;20388;-67
2021/04/13 05:28:21;;;;;;;16.27;3.87;;;3.80;88.10;;;;;;5109572;28;20146;-66
2021/04/13 05:30:49;;;;;;;14.20;2.27;;;3.90;88.10;;;;;;5108795;28;20048;-66
2021/04/13 05:33:16;;;;;;;8.47;1.80;;;3.90;88.00;;;;;;5108030;28;20305;-66
2021/04/13 05:35:41;;;;;;;10.10;1.63;;;3.90;87.90;;;;;;5108585;28;20293;-66
2021/04/13 05:38:14;;;;;;;14.30;2.30;;;4.00;87.80;;;;;;5108764;28;20305;-65
2021/04/13 05:40:40;;;;;;;9.20;2.10;;;4.00;87.80;;;;;;5108099;28;20098;-65
2021/04/13 05:43:07;;;;;;;12.17;2.37;;;4.10;87.80;;;;;;5108285;28;20303;-66
2021/04/13 05:45:36;;;;;;;9.87;2.10;;;4.10;87.60;;;;;;5108554;28;20297;-65
2021/04/13 05:48:03;;;;;;;11.83;2.60;;;4.10;87.60;;;;;;5107669;28;20305;-66
2021/04/13 05:50:33;;;;;;;15.00;2.00;;;4.20;87.30;;;;;;5108691;28;20324;-66
2021/04/13 05:52:58;;;;;;;11.80;2.40;;;4.20;87.10;;;;;;5107976;28;20297;-66
2021/04/13 05:55:24;;;;;;;10.73;2.27;;;4.20;86.90;;;;;;5107794;28;20382;-66
2021/04/13 05:57:53;;;;;;;9.90;2.00;;;4.30;86.90;;;;;;5108685;28;20074;-66
2021/04/13 06:00:23;;;;;;;7.60;2.03;;;4.40;87.00;;;;;;5108516;28;20732;-66
2021/04/13 06:02:49;;;;;;;6.20;1.80;;;4.50;87.10;;;;;;5108006;28;20878;-66
2021/04/13 06:05:16;;;;;;;12.67;2.20;;;4.70;86.90;;;;;;5108392;28;20301;-65
2021/04/13 06:07:42;;;;;;;11.17;2.07;;;4.80;86.10;;;;;;5107400;28;20048;-66
2021/04/13 06:10:08;;;;;;;13.50;2.03;;;4.90;86.80;;;;;;5107561;28;20297;-67
2021/04/13 06:12:34;;;;;;;9.30;2.17;;;5.10;85.70;;;;;;5108461;28;20040;-66
2021/04/13 06:15:00;;;;;;;12.70;2.27;;;5.40;85.30;;;;;;5107665;28;20324;-66
2021/04/13 06:17:26;;;;;;;17.40;2.63;;;5.50;84.50;;;;;;5108330;28;20293;-67
2021/04/13 06:19:51;;;;;;;10.33;1.57;;;5.40;83.90;;;;;;5107639;28;20048;-67
2021/04/13 06:22:17;;;;;;;8.30;1.83;;;5.50;84.10;;;;;;5107268;28;20047;-67
2021/04/13 06:24:43;;;;;;;12.10;2.07;;;5.50;84.20;;;;;;5108545;28;20063;-67
2021/04/13 06:27:09;;;;;;;14.13;2.30;;;5.60;84.00;;;;;;5107951;28;20124;-66
2021/04/13 06:29:37;;;;;;;9.43;2.03;;;5.70;83.90;;;;;;5107593;28;20058;-66
2021/04/13 06:32:05;;;;;;;18.43;2.43;;;5.80;83.20;;;;;;5107619;28;20313;-66
2021/04/13 06:34:31;;;;;;;17.87;2.20;;;5.80;83.20;;;;;;5108372;28;20302;-67
2021/04/13 06:36:57;;;;;;;14.07;2.80;;;5.90;82.80;;;;;;5107070;28;20301;-66
2021/04/13 06:39:24;;;;;;;11.77;2.77;;;6.00;82.80;;;;;;5108361;28;20054;-67
2021/04/13 06:42:17;;;;;;;18.33;2.47;;;5.90;82.40;;;;;;5108252;28;20385;-66
2021/04/13 06:44:52;;;;;;;7.57;1.60;;;5.90;81.80;;;;;;5107707;28;20293;-66
2021/04/13 06:47:52;;;;;;;9.53;2.37;;;6.00;82.10;;;;;;5107802;28;20304;-66
2021/04/13 06:50:55;;;;;;;7.37;1.57;;;6.20;82.00;;;;;;5107015;28;20384;-66
2021/04/13 06:53:27;;;;;;;8.50;2.00;;;6.50;80.70;;;;;;5101034;28;20379;-66
2021/04/13 06:56:20;;;;;;;7.18;1.63;;;6.60;81.00;;;;;;5107287;28;20297;-66
2021/04/13 06:59:04;;;;;;;8.47;1.83;;;6.70;80.60;;;;;;5107585;28;20067;-67
2021/04/13 07:01:33;;;;;;;11.10;2.83;;;6.80;80.20;;;;;;5108221;28;20366;-66
2021/04/13 07:04:08;;;;;;;13.97;2.47;;;6.80;80.40;;;;;;5106127;28;20309;-66
2021/04/13 07:06:49;;;;;;;10.43;2.07;;;6.90;80.10;;;;;;5107613;28;20325;-66
2021/04/13 07:09:26;;;;;;;8.87;1.50;;;7.00;79.90;;;;;;5107524;28;20934;-66
2021/04/13 07:12:17;;;;;;;10.77;1.87;;;7.20;79.30;;;;;;5107449;28;20310;-66
2021/04/13 07:14:50;;;;;;;8.20;2.20;;;7.30;78.50;;;;;;5107659;28;20351;-67
2021/04/13 07:17:23;;;;;;;8.77;2.40;;;7.30;77.80;;;;;;5107958;28;20435;-66
2021/04/13 07:19:56;;;;;;;8.90;2.00;;;7.30;78.00;;;;;;5107826;28;20408;-66
2021/04/13 07:22:43;;;;;;;6.70;1.30;;;7.30;77.70;;;;;;5111943;27;20346;-68
2021/04/13 07:25:17;;;;;;;10.03;1.77;;;7.30;77.30;;;;;;5110941;28;20305;-66
2021/04/13 07:27:51;;;;;;;6.20;1.60;;;7.50;77.50;;;;;;5111106;27;20314;-66
2021/04/13 07:30:28;;;;;;;9.03;2.27;;;7.60;77.00;;;;;;5111035;28;20297;-66
2021/04/13 07:32:57;;;;;;;8.27;1.73;;;7.90;76.50;;;;;;5110267;28;20341;-66
2021/04/13 07:35:27;;;;;;;8.57;1.87;;;8.10;75.10;;;;;;5111651;28;20374;-66
2021/04/13 07:37:54;;;;;;;10.33;1.93;;;8.50;74.10;;;;;;5110606;28;20376;-66
2021/04/13 07:40:27;;;;;;;9.20;1.50;;;8.80;72.40;;;;;;5110254;28;20814;-66
2021/04/13 07:43:01;;;;;;;6.53;1.70;;;9.00;70.20;;;;;;5110713;28;20896;-67
2021/04/13 07:45:58;;;;;;;6.40;1.77;;;9.00;70.50;;;;;;5111509;28;20706;-66
2021/04/13 07:48:43;;;;;;;10.27;1.80;;;9.10;70.60;;;;;;5110636;28;20662;-66
2021/04/13 07:51:18;;;;;;;7.37;1.20;;;9.20;71.10;;;;;;5110610;28;20347;-66
2021/04/13 07:54:13;;;;;;;8.57;1.70;;;9.10;71.10;;;;;;5110264;28;20800;-66
2021/04/13 07:56:50;;;;;;;8.47;1.70;;;9.40;71.10;;;;;;5099176;28;20302;-66
2021/04/13 07:59:28;;;;;;;9.63;1.83;;;9.40;69.90;;;;;;5111095;28;20892;-66
2021/04/13 08:01:54;;;;;;;8.13;1.30;;;9.40;69.40;;;;;;5110219;28;20298;-66
2021/04/13 08:04:23;;;;;;;9.17;1.37;;;9.30;70.80;;;;;;5110441;28;20358;-66
2021/04/13 08:07:19;;;;;;;8.37;1.93;;;9.80;70.80;;;;;;5110017;27;20830;-66
2021/04/13 08:10:26;;;;;;;9.27;4.73;;;10.30;66.70;;;;;;5110131;28;20647;-66
2021/04/13 08:13:00;;;;;;;9.90;3.23;;;10.90;65.20;;;;;;5109992;28;20082;-67
2021/04/13 08:15:38;;;;;;;6.37;1.33;;;11.20;68.00;;;;;;5110001;28;20122;-67
2021/04/13 08:18:10;;;;;;;10.57;1.53;;;11.20;65.90;;;;;;5109419;28;20495;-66
2021/04/13 08:20:39;;;;;;;10.43;1.33;;;10.90;65.50;;;;;;5109917;28;20082;-66
2021/04/13 08:23:12;;;;;;;6.00;1.47;;;11.00;65.40;;;;;;5108685;28;20701;-66
2021/04/13 08:25:45;;;;;;;6.20;1.00;;;11.30;63.40;;;;;;5110410;27;20123;-67
2021/04/13 08:28:35;;;;;;;4.20;0.90;;;11.40;63.70;;;;;;5109862;28;20135;-67
2021/04/13 08:34:27;;;;;;;9.60;1.50;;;11.60;60.70;;;;;;5109383;28;20069;-67
2021/04/13 08:37:08;;;;;;;6.90;1.13;;;11.60;62.50;;;;;;5108563;28;20051;-67
2021/04/13 08:39:47;;;;;;;6.53;1.00;;;11.90;63.50;;;;;;5109898;28;20047;-67
2021/04/13 08:42:32;;;;;;;10.80;1.53;;;12.10;59.70;;;;;;5109593;28;20043;-67
2021/04/13 08:45:01;;;;;;;7.77;1.10;;;11.90;59.50;;;;;;5108770;28;20060;-66
2021/04/13 08:47:41;;;;;;;8.23;1.50;;;11.60;60.70;;;;;;5109464;28;20079;-66
2021/04/13 08:50:42;;;;;;;7.57;1.43;;;11.50;58.30;;;;;;5108175;28;20073;-67
2021/04/13 08:53:35;;;;;;;7.03;1.13;;;10.80;55.90;;;;;;5108846;28;20051;-67
2021/04/13 08:56:28;;;;;;;6.83;1.40;;;10.00;59.50;;;;;;5108975;28;20462;-66
2021/04/13 08:59:06;;;;;;;11.90;2.13;;;9.60;62.40;;;;;;5109274;28;20139;-66
2021/04/13 09:01:42;;;;;;;7.90;1.50;;;9.50;63.50;;;;;;5109116;28;20075;-66
2021/04/13 09:04:26;;;;;;;6.60;1.17;;;9.20;64.00;;;;;;5108508;28;20047;-67
2021/04/13 09:06:56;;;;;;;7.63;1.77;;;8.90;64.00;;;;;;5109363;28;20415;-67
2021/04/13 09:09:30;;;;;;;7.53;1.30;;;8.50;65.20;;;;;;5109433;28;20297;-67
2021/04/13 09:12:09;;;;;;;7.73;1.77;;;8.10;66.40;;;;;;5107791;28;20426;-67
2021/04/13 09:14:58;;;;;;;8.53;1.80;;;7.80;67.30;;;;;;5108608;28;20302;-67
2021/04/13 09:17:32;;;;;;;7.30;1.63;;;7.70;68.00;;;;;;5109148;28;20385;-67
2021/04/13 09:20:04;;;;;;;8.93;1.83;;;7.50;68.20;;;;;;5107867;28;20424;-66
2021/04/13 09:22:46;;;;;;;6.15;1.45;;;7.50;69.00;;;;;;5109250;28;20842;-67
2021/04/13 09:25:17;;;;;;;8.38;1.85;;;7.90;70.40;;;;;;5107512;28;20047;-66
2021/04/13 09:27:51;;;;;;;7.88;1.55;;;8.60;70.00;;;;;;5108456;28;20122;-68
2021/04/13 09:30:17;;;;;;;9.43;1.87;;;9.20;69.70;;;;;;5108531;28;20446;-67
2021/04/13 09:32:45;;;;;;;6.27;2.03;;;9.30;68.00;;;;;;5108225;28;20317;-67
2021/04/13 09:35:34;;;;;;;8.43;1.60;;;9.20;66.80;;;;;;5108160;28;20492;-67
2021/04/13 09:38:19;;;;;;;4.83;1.30;;;8.90;65.40;;;;;;5107915;28;20815;-66
2021/04/13 09:40:55;;;;;;;10.10;1.27;;;8.80;66.20;;;;;;5107991;28;20305;-67
2021/04/13 09:43:48;;;;;;;6.57;1.90;;;8.60;66.30;;;;;;5108412;28;20320;-66
2021/04/13 09:46:42;;;;;;;5.37;1.50;;;8.80;66.80;;;;;;5107822;28;20363;-66
2021/04/13 09:49:32;;;;;;;5.00;1.20;;;9.40;67.30;;;;;;5108897;28;20655;-66
2021/04/13 09:52:41;;;;;;;6.03;1.20;;;10.10;66.30;;;;;;5107743;28;20317;-67
2021/04/13 09:55:21;;;;;;;4.87;1.07;;;10.20;61.00;;;;;;5108276;28;20298;-66
2021/04/13 09:58:04;;;;;;;4.07;1.33;;;9.80;61.70;;;;;;5108222;28;20813;-67
2021/04/13 10:00:45;;;;;;;6.67;1.43;;;9.50;61.80;;;;;;5107899;28;20396;-66
2021/04/13 10:03:23;;;;;;;6.47;1.03;;;9.50;61.20;;;;;;5108770;28;20297;-67
2021/04/13 10:05:49;;;;;;;9.07;1.30;;;9.20;60.90;;;;;;5108577;28;20297;-67
2021/04/13 10:08:15;;;;;;;7.73;1.20;;;9.10;60.90;;;;;;5107611;28;20596;-67
2021/04/13 10:11:09;;;;;;;4.50;1.63;;;9.10;61.80;;;;;;5107510;28;20281;-67
2021/04/13 10:14:03;;;;;;;11.70;1.30;;;9.10;61.80;;;;;;5107360;28;20048;-67
2021/04/13 10:17:06;;;;;;;5.43;1.00;;;9.10;60.60;;;;;;5108431;28;20301;-67
2021/04/13 10:20:08;;;;;;;5.10;1.20;;;8.90;59.80;;;;;;5108476;28;20397;-67
2021/04/13 10:22:42;;;;;;;;;;;8.70;60.30;;;;;;5108033;28;20351;-67
2021/04/13 10:25:52;;;;;;;10.93;1.27;;;8.60;60.80;;;;;;5107687;27;20434;-67
2021/04/13 10:28:26;;;;;;;4.63;1.20;;;8.50;62.10;;;;;;5105470;28;20308;-67
2021/04/13 10:31:15;;;;;;;6.93;1.20;;;8.50;62.00;;;;;;5107403;28;20312;-67
2021/04/13 10:33:49;;;;;;;5.90;1.03;;;8.50;59.70;;;;;;5096754;28;20350;-67
2021/04/13 10:36:53;;;;;;;5.77;0.93;;;8.60;61.30;;;;;;5107358;28;20315;-67
2021/04/13 10:39:42;;;;;;;6.17;1.13;;;8.80;61.00;;;;;;5107895;28;20334;-67
2021/04/13 10:42:31;;;;;;;7.77;1.63;;;9.10;61.30;;;;;;5106414;28;20875;-67
2021/04/13 10:45:24;;;;;;;6.03;0.83;;;9.40;60.80;;;;;;5106948;28;20297;-67
2021/04/13 10:48:30;;;;;;;4.90;1.00;;;9.40;59.60;;;;;;5107319;28;20324;-67
2021/04/13 10:51:27;;;;;;;8.57;1.50;;;9.30;60.20;;;;;;5106224;28;20308;-68
2021/04/13 10:54:34;;;;;;;7.43;1.37;;;9.30;60.40;;;;;;5107521;28;20305;-67
2021/04/13 10:57:33;;;;;;;2.53;0.70;;;9.40;59.10;;;;;;5110960;28;20471;-67
2021/04/13 11:00:32;;;;;;;6.47;1.00;;;9.30;58.80;;;;;;5111680;28;20301;-68
2021/04/13 11:03:01;;;;;;;5.97;1.20;;;9.40;57.50;;;;;;5110998;27;20289;-68
2021/04/13 11:05:48;;;;;;;4.60;1.57;;;9.60;58.50;;;;;;5111570;28;20369;-68
2021/04/13 11:08:32;;;;;;;7.33;1.10;;;9.80;58.00;;;;;;5110904;28;20305;-67
2021/04/13 11:11:15;;;;;;;5.67;1.00;;;9.80;58.50;;;;;;5110101;28;20818;-68
2021/04/13 11:13:47;;;;;;;3.80;1.03;;;9.80;58.30;;;;;;5111693;28;20308;-67
2021/04/13 11:16:18;;;;;;;5.37;1.20;;;9.70;57.60;;;;;;5111715;28;20632;-67
2021/04/13 11:19:16;;;;;;;3.13;0.95;;;9.30;58.20;;;;;;5110279;28;20297;-67
2021/04/13 11:22:12;;;;;;;6.93;1.37;;;8.80;60.90;;;;;;5111058;28;20035;-68
2021/04/13 11:24:39;;;;;;;7.23;1.30;;;8.70;62.50;;;;;;5110376;28;20323;-68
2021/04/13 11:27:26;;;;;;;6.53;1.13;;;8.50;63.00;;;;;;5110680;28;20343;-67
2021/04/13 11:30:13;;;;;;;8.33;1.30;;;8.60;64.50;;;;;;5111308;28;20301;-68
2021/04/13 11:33:11;;;;;;;4.70;1.00;;;8.60;65.00;;;;;;5110054;28;20324;-68
2021/04/13 11:35:43;;;;;;;6.90;1.30;;;8.80;63.00;;;;;;5091795;28;20818;-67
2021/04/13 11:38:32;;;;;;;3.95;0.98;;;8.80;62.80;;;;;;5110483;28;20717;-68
2021/04/13 11:41:23;;;;;;;6.33;1.10;;;9.00;62.60;;;;;;5110297;28;20659;-67
2021/04/13 11:44:11;;;;;;;3.60;1.03;;;9.20;61.40;;;;;;5110713;28;21134;-67
2021/04/13 11:46:58;;;;;;;3.93;0.90;;;9.40;61.30;;;;;;5110557;28;20301;-66
2021/04/13 11:49:42;;;;;;;6.17;0.80;;;9.60;60.00;;;;;;5110198;28;20301;-66
2021/04/13 11:52:42;;;;;;;4.77;0.97;;;9.60;57.60;;;;;;5110000;28;20367;-66
2021/04/13 11:55:27;;;;;;;4.20;0.90;;;9.60;54.80;;;;;;5110773;28;20329;-66
2021/04/13 11:58:17;;;;;;;7.17;0.97;;;9.50;57.00;;;;;;5110505;28;20831;-66
2021/04/13 12:00:44;;;;;;;6.33;1.03;;;9.40;57.00;;;;;;5109886;28;20800;-67
2021/04/13 12:03:23;;;;;;;3.10;1.20;;;9.20;56.90;;;;;;5110981;28;20835;-66
2021/04/13 12:05:52;;;;;;;3.83;0.73;;;9.10;56.40;;;;;;5109851;28;20423;-66
2021/04/13 12:08:30;;;;;;;2.17;0.67;;;9.20;57.70;;;;;;5109964;28;20300;-68
2021/04/13 12:11:01;;;;;;;5.63;1.00;;;9.50;55.20;;;;;;5110195;28;20328;-67
2021/04/13 12:13:37;;;;;;;5.07;0.80;;;9.70;55.60;;;;;;5110364;28;20297;-66
2021/04/13 12:16:04;;;;;;;4.90;0.80;;;9.90;55.30;;;;;;5110368;28;20051;-67
2021/04/13 12:18:35;;;;;;;3.77;0.83;;;10.10;55.00;;;;;;5110491;28;20297;-67
2021/04/13 12:21:27;;;;;;;6.20;1.20;;;10.20;55.30;;;;;;5108284;28;20677;-66
2021/04/13 12:23:55;;;;;;;3.88;0.95;;;10.40;55.80;;;;;;5103372;28;20135;-66
2021/04/13 12:26:39;;;;;;;7.73;1.30;;;10.50;54.40;;;;;;5109921;27;20130;-67
2021/04/13 12:29:34;;;;;;;3.37;1.00;;;10.20;52.10;;;;;;5106364;28;20393;-67
2021/04/13 12:32:12;;;;;;;3.03;0.70;;;10.00;54.10;;;;;;5083435;28;20349;-66
2021/04/13 12:34:48;;;;;;;4.27;0.80;;;10.00;54.10;;;;;;5088767;28;20787;-66
2021/04/13 12:37:32;;;;;;;2.83;0.77;;;10.20;54.00;;;;;;5089735;28;20298;-66
2021/04/13 12:39:59;;;;;;;4.53;0.90;;;10.30;50.80;;;;;;5102802;28;20300;-68
2021/04/13 12:42:28;;;;;;;4.20;0.77;;;10.10;51.70;;;;;;5108320;27;20308;-66
2021/04/13 12:45:20;;;;;;;3.53;0.70;;;10.20;52.30;;;;;;5110087;28;20790;-66
2021/04/13 12:48:08;;;;;;;5.68;0.98;;;10.40;51.70;;;;;;5110354;28;20324;-67
2021/04/13 12:50:40;;;;;;;3.73;0.80;;;10.30;52.70;;;;;;5109451;28;20051;-67
2021/04/13 12:53:19;;;;;;;2.42;0.80;;;9.90;52.10;;;;;;5109384;28;20386;-67
2021/04/13 12:55:45;;;;;;;6.63;0.80;;;9.70;52.80;;;;;;5108346;27;20629;-70
2021/04/13 12:58:15;;;;;;;5.47;1.07;;;9.40;54.10;;;;;;5109222;28;20871;-68
2021/04/13 13:00:47;;;;;;;1.93;0.67;;;9.30;53.70;;;;;;5109823;28;20684;-69
2021/04/13 13:03:30;;;;;;;4.07;0.80;;;9.30;52.60;;;;;;5108220;28;20418;-70
2021/04/13 13:05:56;;;;;;;4.40;0.97;;;9.40;51.80;;;;;;5108623;28;20289;-68
2021/04/13 13:08:28;;;;;;;3.27;1.00;;;9.40;52.80;;;;;;5109467;28;20312;-68
2021/04/13 13:10:57;;;;;;;5.17;0.87;;;9.40;52.50;;;;;;5108763;28;20040;-68
2021/04/13 13:13:31;;;;;;;2.27;0.60;;;9.50;52.30;;;;;;5108905;28;20321;-68
2021/04/13 13:15:58;;;;;;;1.67;0.70;;;9.60;52.00;;;;;;5108675;28;20305;-69
2021/04/13 13:18:37;;;;;;;2.07;0.90;;;9.70;52.70;;;;;;5107710;28;20350;-71
2021/04/13 13:21:08;;;;;;;4.17;0.80;;;9.80;53.20;;;;;;5108981;28;20315;-69
2021/04/13 13:23:37;;;;;;;4.93;0.88;;;10.00;52.90;;;;;;5109126;28;20812;-70
2021/04/13 13:26:20;;;;;;;5.50;0.90;;;10.10;53.20;;;;;;5106419;28;20058;-71
2021/04/13 13:28:46;;;;;;;2.57;0.90;;;10.00;53.30;;;;;;5108120;28;20332;-70
2021/04/13 13:31:25;;;;;;;10.27;2.00;;;9.80;54.40;;;;;;5108320;28;20742;-71
2021/04/13 13:33:55;;;;;;;3.90;0.97;;;9.60;55.00;;;;;;5109539;28;20113;-71
2021/04/13 13:36:21;;;;;;;3.73;0.83;;;9.50;55.80;;;;;;5108954;28;20325;-70
2021/04/13 13:38:48;;;;;;;4.80;0.90;;;9.60;56.10;;;;;;5108321;28;20308;-71
2021/04/13 13:41:18;;;;;;;5.77;1.10;;;9.50;55.60;;;;;;5109279;28;20786;-71
2021/04/13 13:43:45;;;;;;;2.57;1.07;;;9.40;56.30;;;;;;5109285;28;20300;-72
2021/04/13 13:46:23;;;;;;;4.23;1.20;;;9.50;56.90;;;;;;5108660;28;20289;-71
2021/04/13 13:48:49;;;;;;;3.90;0.80;;;9.60;57.00;;;;;;5109052;28;20297;-69